Time;durP1;ratioP1;P1;durP2;ratioP2;P2;SDS_P1;SDS_P2;PMS_P1;PMS_P2;Temp;Humidity;BMP_temperature;BMP_pressure;BME280_temperature;BME280_humidity;BME280_pressure;Samples;Min_cycle;Max_cycle;Signal;HPM_P1;HPM_P2
2022/06/02 00:02:27;;;;;;;2.60;2.40;;;13.90;99.90;;;;;;5203543;22;20240;-69
2022/06/02 00:05:02;;;;;;;2.87;2.60;;;14.00;99.90;;;;;;5038208;28;20193;-70
2022/06/02 00:07:44;;;;;;;3.70;2.80;;;13.90;99.90;;;;;;5037284;28;20588;-69
2022/06/02 00:10:20;;;;;;;6.47;2.53;;;13.90;99.90;;;;;;5036306;28;20227;-70
2022/06/02 00:12:55;;;;;;;2.50;2.30;;;13.80;99.90;;;;;;5037873;28;20169;-69
2022/06/02 00:15:26;;;;;;;3.27;2.70;;;13.90;99.90;;;;;;5038267;28;20187;-70
2022/06/02 00:18:13;;;;;;;2.70;2.50;;;14.00;99.90;;;;;;5037293;28;20200;-70
2022/06/02 00:20:57;;;;;;;2.43;2.23;;;14.00;99.90;;;;;;5035960;28;20169;-70
2022/06/02 00:23:49;;;;;;;3.10;2.80;;;13.80;99.90;;;;;;5035532;28;20171;-70
2022/06/02 00:26:45;;;;;;;3.03;2.60;;;13.80;99.90;;;;;;5035367;28;20242;-70
2022/06/02 00:29:23;;;;;;;4.57;2.90;;;13.80;99.90;;;;;;5034999;28;20212;-70
2022/06/02 00:31:57;;;;;;;2.93;2.67;;;13.70;99.90;;;;;;5035756;28;20581;-69
2022/06/02 00:34:29;;;;;;;3.20;2.87;;;13.60;99.90;;;;;;5035156;28;20156;-70
2022/06/02 00:37:18;;;;;;;3.40;2.63;;;13.60;99.90;;;;;;5035108;28;20165;-69
2022/06/02 00:39:47;;;;;;;3.00;2.67;;;13.50;99.90;;;;;;5035159;28;20168;-70
2022/06/02 00:42:25;;;;;;;4.03;2.87;;;13.60;99.90;;;;;;5035672;28;20589;-70
2022/06/02 00:44:56;;;;;;;3.87;3.47;;;13.40;99.90;;;;;;5035590;28;20263;-70
2022/06/02 00:47:41;;;;;;;4.50;3.00;;;13.40;99.90;;;;;;5034264;28;20222;-69
2022/06/02 00:50:31;;;;;;;3.27;2.93;;;13.30;99.90;;;;;;5035038;28;20177;-69
2022/06/02 00:53:05;;;;;;;3.03;2.50;;;13.50;99.90;;;;;;5036693;28;20250;-69
2022/06/02 00:58:54;;;;;;;7.60;3.10;;;13.60;99.90;;;;;;5043952;28;20222;-69
2022/06/02 01:01:30;;;;;;;3.50;2.50;;;13.60;99.90;;;;;;5043428;28;20228;-69
2022/06/02 01:03:58;;;;;;;2.97;2.67;;;13.60;99.90;;;;;;5037792;28;20171;-69
2022/06/02 01:06:35;;;;;;;2.70;2.50;;;13.80;99.90;;;;;;5035728;28;20302;-69
2022/06/02 01:09:38;;;;;;;3.20;2.83;;;13.70;99.90;;;;;;5035239;28;20290;-70
2022/06/02 01:12:12;;;;;;;2.80;2.50;;;13.60;99.90;;;;;;5034972;28;20160;-69
2022/06/02 01:15:02;;;;;;;3.20;2.90;;;13.60;99.90;;;;;;5033535;28;20169;-68
2022/06/02 01:17:41;;;;;;;4.33;3.00;;;13.40;99.90;;;;;;5034326;28;20168;-68
2022/06/02 01:20:22;;;;;;;3.53;2.80;;;13.40;99.90;;;;;;5034941;28;20172;-68
2022/06/02 01:23:08;;;;;;;5.87;2.73;;;13.40;99.90;;;;;;5034704;28;20164;-70
2022/06/02 01:25:46;;;;;;;3.20;2.90;;;13.40;99.90;;;;;;5034024;28;20200;-70
2022/06/02 01:28:31;;;;;;;2.90;2.47;;;13.30;99.90;;;;;;5034575;28;20169;-70
2022/06/02 01:31:14;;;;;;;3.10;2.73;;;13.30;99.90;;;;;;5034485;28;20168;-71
2022/06/02 01:33:49;;;;;;;3.67;2.80;;;13.20;99.90;;;;;;5033145;28;20172;-70
2022/06/02 01:36:41;;;;;;;2.37;2.17;;;13.20;99.90;;;;;;5033957;28;20164;-70
2022/06/02 01:39:27;;;;;;;2.70;2.50;;;13.00;99.90;;;;;;5033927;28;20176;-69
2022/06/02 01:42:23;;;;;;;3.80;2.50;;;12.90;99.90;;;;;;5033121;28;20645;-70
2022/06/02 01:45:04;;;;;;;4.03;2.80;;;12.80;99.90;;;;;;5034421;28;20248;-69
2022/06/02 01:47:37;;;;;;;2.53;2.33;;;12.80;99.90;;;;;;5034035;28;20286;-69
2022/06/02 01:50:05;;;;;;;2.50;2.30;;;12.80;99.90;;;;;;5034113;28;20168;-70
2022/06/02 01:53:02;;;;;;;3.13;2.33;;;12.90;99.90;;;;;;5034025;28;20561;-69
2022/06/02 01:56:01;;;;;;;2.30;2.10;;;12.90;99.90;;;;;;5034747;28;20231;-70
2022/06/02 01:58:35;;;;;;;2.63;2.43;;;12.90;99.90;;;;;;5034088;28;20267;-70
2022/06/02 02:01:45;;;;;;;2.77;2.50;;;12.80;99.90;;;;;;5033711;28;20191;-69
2022/06/02 02:04:52;;;;;;;3.80;2.43;;;12.70;99.90;;;;;;5031458;28;20204;-69
2022/06/02 02:07:25;;;;;;;6.83;2.47;;;12.70;99.90;;;;;;5014736;28;20636;-69
2022/06/02 02:10:02;;;;;;;2.63;2.43;;;12.80;99.90;;;;;;5034464;28;20157;-70
2022/06/02 02:12:30;;;;;;;2.33;2.13;;;12.70;99.90;;;;;;5034304;28;20251;-70
2022/06/02 02:15:12;;;;;;;2.83;2.20;;;12.60;99.90;;;;;;5034124;28;20169;-70
2022/06/02 02:18:23;;;;;;;2.30;2.10;;;12.60;99.90;;;;;;5034865;28;20165;-70
2022/06/02 02:21:12;;;;;;;2.50;2.27;;;12.50;99.90;;;;;;5033461;28;20527;-69
2022/06/02 02:24:01;;;;;;;2.50;2.30;;;12.40;99.90;;;;;;5034342;28;20225;-69
2022/06/02 02:26:53;;;;;;;4.97;2.60;;;12.40;99.90;;;;;;5034486;28;20184;-70
2022/06/02 02:29:44;;;;;;;2.53;2.33;;;12.40;99.90;;;;;;5043725;28;20215;-70
2022/06/02 02:32:15;;;;;;;2.93;2.37;;;12.40;99.90;;;;;;5046439;28;20180;-71
2022/06/02 02:34:52;;;;;;;2.83;2.50;;;12.50;99.90;;;;;;5040602;28;20168;-70
2022/06/02 02:37:32;;;;;;;2.60;2.40;;;12.40;99.90;;;;;;5033659;28;20164;-70
2022/06/02 02:40:04;;;;;;;3.93;2.60;;;12.20;99.90;;;;;;5033415;28;20160;-70
2022/06/02 02:42:53;;;;;;;2.40;2.20;;;12.30;99.90;;;;;;5033641;28;20168;-71
2022/06/02 02:45:41;;;;;;;2.70;2.50;;;12.20;99.90;;;;;;5033556;28;20286;-71
2022/06/02 02:48:26;;;;;;;2.93;2.60;;;12.30;99.90;;;;;;5033792;28;20208;-70
2022/06/02 02:51:14;;;;;;;3.03;2.40;;;12.30;99.90;;;;;;5034153;28;20282;-69
2022/06/02 02:53:47;;;;;;;2.93;2.47;;;12.20;99.90;;;;;;5033516;28;20173;-69
2022/06/02 02:56:21;;;;;;;3.63;2.50;;;12.20;99.90;;;;;;5036026;28;20585;-71
2022/06/02 02:59:20;;;;;;;2.67;2.47;;;12.20;99.90;;;;;;5036886;28;20246;-70
2022/06/02 03:02:13;;;;;;;2.83;2.37;;;12.20;99.90;;;;;;5037932;28;20517;-70
2022/06/02 03:04:53;;;;;;;2.47;2.27;;;12.10;99.90;;;;;;5037960;28;20201;-71
2022/06/02 03:07:20;;;;;;;2.30;2.10;;;12.10;99.90;;;;;;5038315;28;20504;-71
2022/06/02 03:10:07;;;;;;;3.47;2.60;;;12.20;99.90;;;;;;5040824;28;20173;-70
2022/06/02 03:12:51;;;;;;;3.03;2.40;;;12.10;99.90;;;;;;5043954;28;20165;-71
2022/06/02 03:15:31;;;;;;;2.80;2.50;;;12.10;99.90;;;;;;5042810;28;20195;-72
2022/06/02 03:18:12;;;;;;;2.93;2.60;;;12.10;99.90;;;;;;5041856;28;20153;-70
2022/06/02 03:20:54;;;;;;;2.80;2.43;;;12.10;99.90;;;;;;5039289;28;20173;-70
2022/06/02 03:23:28;;;;;;;4.50;2.67;;;12.10;99.90;;;;;;5038933;28;20180;-70
2022/06/02 03:25:58;;;;;;;3.63;2.90;;;12.00;99.90;;;;;;5043335;28;20192;-71
2022/06/02 03:28:29;;;;;;;3.27;2.97;;;12.10;99.90;;;;;;5043050;28;20180;-71
2022/06/02 03:31:09;;;;;;;3.87;2.80;;;12.10;99.90;;;;;;5039524;28;20157;-72
2022/06/02 03:34:12;;;;;;;3.17;2.60;;;12.00;99.90;;;;;;5036828;28;20157;-70
2022/06/02 03:36:56;;;;;;;3.90;2.90;;;12.00;99.90;;;;;;5036080;28;20163;-70
2022/06/02 03:39:45;;;;;;;2.67;2.40;;;12.00;99.90;;;;;;5036321;28;20168;-71
2022/06/02 03:42:15;;;;;;;3.27;2.80;;;12.10;99.90;;;;;;5036595;28;20169;-71
2022/06/02 03:44:43;;;;;;;3.40;3.10;;;12.10;99.90;;;;;;5034808;28;20209;-70
2022/06/02 03:47:30;;;;;;;3.37;3.07;;;12.10;99.90;;;;;;5032551;28;20654;-71
2022/06/02 03:50:11;;;;;;;3.43;3.13;;;12.00;99.90;;;;;;5036285;28;20173;-69
2022/06/02 03:53:04;;;;;;;3.10;2.67;;;12.00;99.90;;;;;;5035666;28;20177;-71
2022/06/02 03:55:50;;;;;;;3.50;2.57;;;12.00;99.90;;;;;;5035889;28;20608;-70
2022/06/02 03:58:35;;;;;;;3.53;3.20;;;12.00;99.90;;;;;;5036098;28;20162;-70
2022/06/02 04:01:05;;;;;;;3.63;3.20;;;12.00;99.90;;;;;;5024716;28;20196;-71
2022/06/02 04:03:43;;;;;;;3.50;3.20;;;12.00;99.90;;;;;;5037135;28;20274;-70
2022/06/02 04:06:48;;;;;;;7.20;3.37;;;12.10;99.90;;;;;;5036894;28;20212;-70
2022/06/02 04:09:27;;;;;;;3.80;3.30;;;12.00;99.90;;;;;;5037445;28;20183;-72
2022/06/02 04:15:11;;;;;;;4.77;3.73;;;12.10;99.90;;;;;;5036919;28;20166;-70
2022/06/02 04:17:46;;;;;;;3.63;3.27;;;12.10;99.90;;;;;;5037174;28;20600;-69
2022/06/02 04:20:34;;;;;;;4.27;3.57;;;12.10;99.90;;;;;;5035577;28;20180;-70
2022/06/02 04:23:21;;;;;;;3.80;3.23;;;12.20;99.90;;;;;;5033413;28;20208;-69
2022/06/02 04:26:11;;;;;;;3.80;3.37;;;12.30;99.90;;;;;;5036974;28;20647;-70
2022/06/02 04:28:58;;;;;;;7.07;3.33;;;12.20;99.90;;;;;;5036359;28;20177;-71
2022/06/02 04:31:32;;;;;;;3.20;2.90;;;12.30;99.90;;;;;;5035472;28;20165;-70
2022/06/02 04:34:10;;;;;;;3.20;2.90;;;12.30;99.90;;;;;;5034945;28;20508;-68
2022/06/02 04:37:16;;;;;;;4.53;3.30;;;12.30;99.90;;;;;;5035296;28;20623;-71
2022/06/02 04:39:48;;;;;;;3.50;3.20;;;12.30;99.90;;;;;;5034916;28;20194;-70
2022/06/02 04:42:37;;;;;;;4.20;3.20;;;12.30;99.90;;;;;;5034869;28;20574;-69
2022/06/02 04:45:28;;;;;;;9.57;3.73;;;12.10;99.90;;;;;;5034525;28;20547;-70
2022/06/02 04:48:24;;;;;;;5.17;3.47;;;12.40;99.90;;;;;;5034684;28;20169;-70
2022/06/02 04:51:29;;;;;;;5.40;4.00;;;12.30;99.90;;;;;;5035129;28;20161;-70
2022/06/02 04:54:13;;;;;;;4.40;3.90;;;12.40;99.90;;;;;;5034580;28;20168;-70
2022/06/02 04:56:47;;;;;;;4.80;3.90;;;12.50;99.90;;;;;;5034690;28;20165;-68
2022/06/02 04:59:22;;;;;;;3.90;3.50;;;12.50;99.90;;;;;;5037730;28;20168;-68
2022/06/02 05:02:24;;;;;;;3.90;3.47;;;12.50;99.90;;;;;;5037915;28;20693;-70
2022/06/02 05:05:06;;;;;;;4.40;3.73;;;12.60;99.90;;;;;;5037728;28;20196;-70
2022/06/02 05:07:54;;;;;;;4.20;3.60;;;12.80;99.90;;;;;;5038467;28;20196;-71
2022/06/02 05:10:32;;;;;;;3.80;3.40;;;12.80;99.90;;;;;;5034864;28;20172;-70
2022/06/02 05:13:28;;;;;;;7.20;3.57;;;12.90;99.90;;;;;;5034431;28;20529;-70
2022/06/02 05:16:23;;;;;;;4.80;3.67;;;12.80;99.90;;;;;;5034245;28;20510;-70
2022/06/02 05:19:36;;;;;;;5.83;4.37;;;12.80;99.90;;;;;;5034738;28;20161;-69
2022/06/02 05:22:29;;;;;;;3.53;3.23;;;13.00;99.90;;;;;;5012076;28;20264;-71
2022/06/02 05:25:13;;;;;;;4.10;3.50;;;13.10;99.90;;;;;;5012220;28;20559;-70
2022/06/02 05:28:03;;;;;;;5.73;3.50;;;13.20;99.90;;;;;;5012176;28;20173;-70
2022/06/02 05:30:38;;;;;;;11.07;4.00;;;13.20;99.90;;;;;;5012360;28;20210;-68
2022/06/02 05:33:24;;;;;;;6.47;3.60;;;13.10;99.90;;;;;;5012123;28;20268;-69
2022/06/02 05:36:01;;;;;;;4.77;3.03;;;13.10;99.90;;;;;;5011839;28;20213;-69
2022/06/02 05:38:48;;;;;;;5.13;3.70;;;13.20;99.90;;;;;;5011865;28;20211;-71
2022/06/02 05:41:44;;;;;;;5.57;3.60;;;13.20;99.90;;;;;;5012089;28;20617;-69
2022/06/02 05:44:35;;;;;;;4.10;3.70;;;13.20;99.90;;;;;;5012349;28;20194;-70
2022/06/02 05:47:22;;;;;;;4.53;3.77;;;13.20;99.90;;;;;;5011953;28;20166;-69
2022/06/02 05:50:14;;;;;;;5.37;3.60;;;13.20;99.90;;;;;;5012246;28;20209;-69
2022/06/02 05:53:05;;;;;;;4.10;3.63;;;13.20;99.90;;;;;;5011905;28;20205;-71
2022/06/02 05:55:52;;;;;;;5.27;3.87;;;13.20;99.90;;;;;;5018447;28;20188;-69
2022/06/02 05:58:44;;;;;;;5.63;3.87;;;13.30;99.90;;;;;;5033955;28;20157;-70
2022/06/02 06:01:31;;;;;;;4.63;4.17;;;13.50;99.90;;;;;;5033346;28;20188;-69
2022/06/02 06:04:17;;;;;;;5.23;3.97;;;13.60;99.90;;;;;;5033822;28;20194;-69
2022/06/02 06:06:52;;;;;;;4.23;3.67;;;13.70;99.90;;;;;;5028685;28;20235;-70
2022/06/02 06:09:46;;;;;;;5.13;4.07;;;13.80;99.90;;;;;;5033803;28;20204;-68
2022/06/02 06:12:21;;;;;;;4.60;3.73;;;13.80;99.90;;;;;;5034030;28;20259;-70
2022/06/02 06:14:55;;;;;;;5.53;3.97;;;13.80;99.90;;;;;;5033573;28;20172;-69
2022/06/02 06:17:43;;;;;;;4.37;3.80;;;13.90;99.90;;;;;;5033846;28;20509;-69
2022/06/02 06:20:35;;;;;;;3.90;3.60;;;13.90;99.90;;;;;;5034264;28;20165;-69
2022/06/02 06:23:21;;;;;;;5.13;4.20;;;14.10;99.90;;;;;;5035002;28;20161;-68
2022/06/02 06:26:06;;;;;;;5.03;3.83;;;14.10;99.90;;;;;;5039044;28;20328;-68
2022/06/02 06:28:40;;;;;;;4.07;3.67;;;14.10;99.90;;;;;;5043520;28;20189;-69
2022/06/02 06:31:36;;;;;;;7.87;3.77;;;14.10;99.90;;;;;;5044486;28;20213;-69
2022/06/02 06:34:07;;;;;;;3.90;3.30;;;14.10;99.90;;;;;;5043864;28;20175;-68
2022/06/02 06:36:55;;;;;;;4.33;3.70;;;14.10;99.90;;;;;;5035143;28;20518;-68
2022/06/02 06:39:39;;;;;;;3.63;2.80;;;14.00;99.90;;;;;;5034663;28;20168;-68
2022/06/02 06:42:42;;;;;;;4.57;3.53;;;14.30;99.90;;;;;;5034423;28;20584;-70
2022/06/02 06:45:40;;;;;;;4.93;3.40;;;14.40;99.90;;;;;;5033658;28;20257;-69
2022/06/02 06:48:14;;;;;;;4.50;3.37;;;14.50;99.90;;;;;;5024768;28;20224;-69
2022/06/02 06:50:43;;;;;;;5.53;3.87;;;14.60;99.90;;;;;;5032976;28;20164;-69
2022/06/02 06:53:40;;;;;;;4.17;3.77;;;14.90;99.90;;;;;;5033155;28;20172;-69
2022/06/02 06:56:05;;;;;;;5.50;3.47;;;14.80;99.90;;;;;;5031730;28;20173;-70
2022/06/02 06:58:53;;;;;;;3.43;3.13;;;14.60;99.90;;;;;;5032605;28;20222;-69
2022/06/02 07:01:52;;;;;;;3.50;3.13;;;14.90;99.90;;;;;;5032883;28;20231;-70
2022/06/02 07:04:50;;;;;;;5.20;3.03;;;15.20;99.90;;;;;;5031693;28;20189;-68
2022/06/02 07:07:26;;;;;;;3.43;3.07;;;15.20;99.90;;;;;;5032029;28;20171;-68
2022/06/02 07:10:06;;;;;;;3.60;3.30;;;15.40;99.90;;;;;;5033305;28;20163;-69
2022/06/02 07:13:01;;;;;;;3.40;3.10;;;15.70;99.90;;;;;;5029656;28;20179;-70
2022/06/02 07:15:41;;;;;;;4.57;3.30;;;15.40;99.90;;;;;;5028220;28;20192;-69
2022/06/02 07:18:28;;;;;;;3.37;2.50;;;15.60;99.90;;;;;;5033274;28;20235;-70
2022/06/02 07:20:59;;;;;;;3.50;2.93;;;16.10;99.90;;;;;;5033889;28;20168;-69
2022/06/02 07:23:43;;;;;;;3.43;3.13;;;15.80;99.90;;;;;;5033508;28;20161;-68
2022/06/02 07:26:31;;;;;;;3.13;2.83;;;15.90;99.90;;;;;;5033929;28;20668;-68
2022/06/02 07:28:56;;;;;;;3.17;2.87;;;15.70;99.90;;;;;;5033023;28;20218;-69
2022/06/02 07:31:34;;;;;;;4.83;3.30;;;15.60;99.90;;;;;;5032968;28;20546;-69
2022/06/02 07:34:12;;;;;;;4.47;3.00;;;15.70;99.90;;;;;;5032871;28;20157;-67
2022/06/02 07:37:01;;;;;;;5.40;2.73;;;15.80;99.90;;;;;;5033419;28;20585;-68
2022/06/02 07:39:35;;;;;;;3.37;2.70;;;16.00;99.90;;;;;;5026963;28;20632;-69
2022/06/02 07:42:24;;;;;;;4.83;3.17;;;16.00;99.90;;;;;;5036554;28;20165;-69
2022/06/02 07:45:21;;;;;;;5.17;3.40;;;15.60;99.90;;;;;;5036461;28;20227;-70
2022/06/02 07:48:01;;;;;;;3.50;2.80;;;15.30;99.90;;;;;;5037138;28;20176;-68
2022/06/02 07:50:30;;;;;;;3.10;2.80;;;15.40;99.90;;;;;;5036137;28;20165;-69
2022/06/02 07:53:25;;;;;;;3.67;2.73;;;15.60;99.90;;;;;;5036210;28;20264;-69
2022/06/02 07:56:00;;;;;;;3.10;2.60;;;15.80;99.90;;;;;;5035604;28;20185;-69
2022/06/02 07:58:50;;;;;;;3.20;2.90;;;16.00;99.90;;;;;;5036179;28;20200;-69
2022/06/02 08:01:19;;;;;;;5.50;2.77;;;16.20;99.90;;;;;;5036189;28;20184;-69
2022/06/02 08:04:00;;;;;;;3.03;2.50;;;16.50;99.90;;;;;;5036190;28;20169;-69
2022/06/02 08:06:31;;;;;;;2.90;2.50;;;16.40;99.90;;;;;;5036126;28;20196;-69
2022/06/02 08:09:32;;;;;;;3.20;2.57;;;16.80;99.90;;;;;;5036114;28;20165;-69
2022/06/02 08:12:10;;;;;;;2.67;2.40;;;16.60;99.90;;;;;;5036090;28;20223;-70
2022/06/02 08:15:15;;;;;;;2.27;2.07;;;16.40;99.90;;;;;;5035201;28;20188;-69
2022/06/02 08:17:53;;;;;;;2.87;2.00;;;16.50;99.90;;;;;;5036462;28;20176;-69
2022/06/02 08:20:41;;;;;;;2.03;1.90;;;16.60;99.90;;;;;;5036308;28;20156;-70
2022/06/02 08:23:14;;;;;;;3.20;2.13;;;16.90;99.90;;;;;;5036529;28;20177;-68
2022/06/02 08:25:57;;;;;;;6.32;2.58;;;17.10;99.90;;;;;;5037283;28;20532;-70
2022/06/02 08:28:49;;;;;;;2.20;2.00;;;17.20;99.90;;;;;;5039027;28;20525;-70
2022/06/02 08:31:35;;;;;;;2.80;2.35;;;16.80;99.90;;;;;;5044090;28;20233;-70
2022/06/02 08:34:08;;;;;;;3.80;2.30;;;16.80;99.90;;;;;;5044437;28;20194;-71
2022/06/02 08:36:46;;;;;;;2.40;2.20;;;16.40;99.90;;;;;;5043295;28;20173;-70
2022/06/02 08:39:17;;;;;;;3.17;2.40;;;16.30;99.90;;;;;;5044187;28;20214;-68
2022/06/02 08:42:12;;;;;;;3.20;2.73;;;16.50;99.90;;;;;;5044231;28;20173;-68
2022/06/02 08:45:08;;;;;;;3.67;3.10;;;16.60;99.90;;;;;;5044445;28;20262;-69
2022/06/02 08:47:58;;;;;;;4.07;1.92;;;16.80;99.90;;;;;;5043458;28;20172;-68
2022/06/02 08:51:02;;;;;;;4.10;1.70;;;16.90;99.90;;;;;;5043309;28;20157;-70
2022/06/02 08:54:01;;;;;;;2.00;1.80;;;17.10;99.90;;;;;;5038424;28;20196;-70
2022/06/02 08:56:41;;;;;;;2.70;1.80;;;16.60;99.90;;;;;;5042019;28;20191;-70
2022/06/02 08:59:40;;;;;;;2.10;1.90;;;16.80;99.90;;;;;;5038482;28;20263;-70
2022/06/02 09:02:12;;;;;;;9.53;1.70;;;16.50;99.90;;;;;;5038913;28;20291;-70
2022/06/02 09:05:01;;;;;;;1.83;1.70;;;16.90;99.90;;;;;;5039238;28;20272;-70
2022/06/02 09:08:17;;;;;;;1.90;1.77;;;17.40;99.90;;;;;;5041843;28;20223;-70
2022/06/02 09:10:55;;;;;;;2.30;1.87;;;17.40;99.90;;;;;;5039382;28;20160;-71
2022/06/02 09:13:55;;;;;;;1.80;1.70;;;17.70;99.90;;;;;;5029602;28;20181;-70
2022/06/02 09:16:26;;;;;;;2.15;1.95;;;17.60;99.90;;;;;;5009388;28;20301;-70
2022/06/02 09:19:19;;;;;;;2.20;2.00;;;17.50;99.90;;;;;;5015221;28;20188;-71
2022/06/02 09:22:07;;;;;;;2.20;2.00;;;17.60;99.90;;;;;;5015520;28;20220;-71
2022/06/02 09:24:45;;;;;;;2.83;1.95;;;17.20;99.90;;;;;;5014472;28;20250;-70
2022/06/02 09:27:29;;;;;;;3.33;1.85;;;17.00;99.90;;;;;;5014555;28;20246;-69
2022/06/02 09:30:00;;;;;;;4.10;3.05;;;17.50;99.90;;;;;;5014377;28;20253;-73
2022/06/02 09:32:57;;;;;;;6.50;4.03;;;17.80;99.90;;;;;;5014441;28;20165;-68
2022/06/02 09:35:50;;;;;;;3.15;2.50;;;18.90;99.90;;;;;;5014625;28;20202;-71
2022/06/02 09:38:49;;;;;;;2.42;2.22;;;17.90;99.10;;;;;;5014590;28;20169;-72
2022/06/02 09:41:26;;;;;;;2.92;2.05;;;17.80;99.90;;;;;;5014826;28;20169;-70
2022/06/02 09:44:11;;;;;;;3.50;2.67;;;17.80;99.30;;;;;;5014921;28;20240;-65
2022/06/02 09:47:16;;;;;;;2.45;2.20;;;17.90;98.90;;;;;;5014471;28;20235;-68
2022/06/02 09:50:07;;;;;;;2.40;2.00;;;18.30;99.80;;;;;;5014369;28;20180;-68
2022/06/02 09:52:36;;;;;;;2.60;2.20;;;18.10;98.90;;;;;;5014487;28;20162;-68
2022/06/02 09:55:19;;;;;;;4.72;2.70;;;17.70;99.90;;;;;;5014262;28;20165;-68
2022/06/02 09:57:57;;;;;;;3.30;2.55;;;18.40;99.60;;;;;;5023419;28;20710;-69
2022/06/02 10:00:44;;;;;;;3.35;2.30;;;18.20;98.30;;;;;;5040422;28;20171;-68
2022/06/02 10:03:24;;;;;;;2.60;2.17;;;18.60;97.40;;;;;;5040593;28;20224;-67
2022/06/02 10:06:27;;;;;;;6.85;2.40;;;18.40;97.40;;;;;;5045382;28;20201;-70
2022/06/02 10:09:04;;;;;;;2.85;2.40;;;18.90;94.60;;;;;;5032989;28;20224;-69
2022/06/02 10:15:20;;;;;;;2.88;2.47;;;17.80;96.50;;;;;;5019912;28;20191;-68
2022/06/02 10:18:01;;;;;;;2.50;2.30;;;18.40;97.20;;;;;;5033687;28;20171;-68
2022/06/02 10:20:41;;;;;;;2.75;2.30;;;18.50;97.10;;;;;;5033512;28;20171;-67
2022/06/02 10:23:25;;;;;;;3.83;2.13;;;19.00;94.90;;;;;;5033481;28;20165;-69
2022/06/02 10:25:53;;;;;;;1.92;1.83;;;19.50;92.10;;;;;;5033697;28;20670;-67
2022/06/02 10:28:49;;;;;;;2.17;1.83;;;19.70;91.50;;;;;;5033173;28;20248;-69
2022/06/02 10:31:31;;;;;;;2.25;2.08;;;19.40;89.40;;;;;;5033374;28;20230;-69
2022/06/02 10:34:00;;;;;;;3.25;2.00;;;19.40;90.10;;;;;;5033721;28;20255;-71
2022/06/02 10:36:40;;;;;;;2.92;2.35;;;19.50;90.40;;;;;;5033619;28;20160;-70
2022/06/02 10:39:18;;;;;;;4.05;2.63;;;18.70;92.30;;;;;;5033484;28;20157;-70
2022/06/02 10:42:22;;;;;;;2.83;2.58;;;18.30;94.60;;;;;;5033708;28;20161;-68
2022/06/02 10:45:03;;;;;;;2.83;2.25;;;18.70;95.20;;;;;;5033636;28;20188;-66
2022/06/02 10:47:50;;;;;;;2.00;1.90;;;19.20;92.10;;;;;;5033627;28;20161;-68
2022/06/02 10:50:24;;;;;;;3.88;2.05;;;19.20;88.90;;;;;;5032185;28;20617;-70
2022/06/02 10:53:48;;;;;;;4.63;2.08;;;18.90;87.00;;;;;;5033551;28;20227;-68
2022/06/02 10:56:49;;;;;;;1.80;1.70;;;19.10;90.10;;;;;;5034169;28;20167;-69
2022/06/02 10:59:46;;;;;;;3.25;2.10;;;19.50;88.40;;;;;;5036565;28;20169;-68
2022/06/02 11:02:30;;;;;;;2.72;2.30;;;19.00;90.10;;;;;;5033589;28;20589;-69
2022/06/02 11:05:07;;;;;;;2.50;2.30;;;19.40;88.80;;;;;;5042169;28;20600;-69
2022/06/02 11:08:00;;;;;;;5.03;2.00;;;19.80;86.70;;;;;;5044952;28;20169;-69
2022/06/02 11:10:25;;;;;;;4.22;2.40;;;19.20;87.60;;;;;;5035174;28;20165;-73
2022/06/02 11:13:18;;;;;;;2.50;2.30;;;18.50;91.00;;;;;;5032871;28;20566;-70
2022/06/02 11:16:05;;;;;;;2.75;2.40;;;18.40;92.60;;;;;;5036777;28;20168;-73
2022/06/02 11:19:13;;;;;;;4.10;2.50;;;19.10;91.00;;;;;;5037016;28;20200;-71
2022/06/02 11:22:01;;;;;;;2.75;2.53;;;19.40;88.40;;;;;;5036689;28;20210;-68
2022/06/02 11:24:57;;;;;;;4.82;2.08;;;19.80;86.60;;;;;;5036682;28;20168;-68
2022/06/02 11:27:57;;;;;;;2.38;2.17;;;19.20;85.80;;;;;;5037063;28;20215;-69
2022/06/02 11:30:42;;;;;;;2.40;2.20;;;18.90;89.70;;;;;;5035001;28;20180;-69
2022/06/02 11:33:22;;;;;;;2.92;2.05;;;19.10;88.50;;;;;;5035933;28;20473;-69
2022/06/02 11:36:12;;;;;;;2.40;2.20;;;19.90;83.30;;;;;;5036275;28;20617;-70
2022/06/02 11:38:56;;;;;;;2.83;2.30;;;19.90;80.50;;;;;;5035194;28;20264;-69
2022/06/02 11:41:41;;;;;;;3.25;2.53;;;19.80;83.20;;;;;;5036521;28;20161;-69
2022/06/02 11:44:33;;;;;;;4.60;2.60;;;20.40;83.50;;;;;;5036219;28;20169;-70
2022/06/02 11:47:42;;;;;;;3.20;2.63;;;20.60;80.30;;;;;;5026322;28;20647;-71
2022/06/02 11:50:38;;;;;;;2.95;2.63;;;19.90;81.00;;;;;;5033720;28;20200;-69
2022/06/02 11:53:21;;;;;;;2.58;2.38;;;19.20;84.70;;;;;;5038090;28;20165;-70
2022/06/02 11:56:13;;;;;;;2.65;2.45;;;19.20;87.20;;;;;;5042899;28;20200;-70
2022/06/02 11:58:57;;;;;;;2.88;2.67;;;19.40;86.60;;;;;;5042199;28;20268;-70
2022/06/02 12:01:29;;;;;;;2.88;2.67;;;19.60;86.10;;;;;;5038041;28;20605;-69
2022/06/02 12:04:00;;;;;;;2.70;2.50;;;19.50;85.40;;;;;;5037457;28;20161;-70
2022/06/02 12:06:47;;;;;;;3.05;2.75;;;19.50;83.80;;;;;;5037022;28;20196;-69
2022/06/02 12:09:37;;;;;;;3.17;2.88;;;19.20;84.40;;;;;;5037087;28;20169;-69
2022/06/02 12:12:26;;;;;;;2.60;2.40;;;19.70;85.00;;;;;;5037819;28;20197;-71
2022/06/02 12:15:04;;;;;;;3.63;2.80;;;19.90;82.00;;;;;;5038690;28;20165;-68
2022/06/02 12:17:55;;;;;;;2.85;2.55;;;20.30;81.80;;;;;;5040119;28;20195;-70
2022/06/02 12:20:36;;;;;;;2.42;2.22;;;20.60;79.40;;;;;;5041973;28;20169;-71
2022/06/02 12:23:09;;;;;;;2.53;2.33;;;20.90;78.60;;;;;;5047409;28;20180;-69
2022/06/02 12:26:12;;;;;;;3.13;2.83;;;20.60;76.50;;;;;;5036418;28;20193;-72
2022/06/02 12:29:19;;;;;;;4.00;3.60;;;20.60;76.70;;;;;;5000467;28;20363;-76
2022/06/02 12:32:03;;;;;;;2.50;2.30;;;21.00;77.10;;;;;;5036588;28;20156;-76
2022/06/02 12:35:08;;;;;;;2.60;2.40;;;21.10;75.70;;;;;;5036294;28;20165;-76
2022/06/02 12:38:11;;;;;;;2.85;2.65;;;20.90;75.80;;;;;;5031822;28;20666;-75
2022/06/02 12:40:40;;;;;;;3.35;2.40;;;21.30;75.30;;;;;;5034403;28;20275;-74
2022/06/02 12:43:34;;;;;;;2.53;2.33;;;21.20;74.10;;;;;;5037695;28;20176;-76
2022/06/02 12:46:32;;;;;;;2.50;2.10;;;20.90;72.20;;;;;;5043019;28;20192;-78
2022/06/02 12:49:22;;;;;;;2.30;2.10;;;20.90;72.80;;;;;;5040390;28;20218;-76
2022/06/02 12:52:12;;;;;;;2.92;2.10;;;21.30;71.60;;;;;;5035725;28;20188;-76
2022/06/02 12:55:18;;;;;;;2.95;2.75;;;21.90;70.80;;;;;;5034627;28;20187;-75
2022/06/02 12:58:23;;;;;;;5.75;2.22;;;21.60;67.50;;;;;;5035573;28;20152;-77
2022/06/02 13:00:48;;;;;;;2.35;2.15;;;21.70;67.70;;;;;;5034685;28;20176;-78
2022/06/02 13:03:44;;;;;;;2.40;2.20;;;22.00;68.10;;;;;;5035727;28;20651;-78
2022/06/02 13:06:29;;;;;;;2.28;2.03;;;21.40;68.20;;;;;;5035130;28;20224;-77
2022/06/02 13:09:18;;;;;;;7.57;2.40;;;21.30;70.20;;;;;;5036106;28;20257;-75
2022/06/02 13:11:57;;;;;;;2.22;1.88;;;20.80;68.20;;;;;;5032897;28;20203;-76
2022/06/02 13:14:47;;;;;;;2.28;2.08;;;20.80;71.30;;;;;;5036771;28;20171;-76
2022/06/02 13:17:38;;;;;;;2.70;2.50;;;21.20;70.10;;;;;;5035516;28;20162;-73
2022/06/02 13:20:22;;;;;;;2.03;1.92;;;21.90;70.80;;;;;;5035242;28;20502;-77
2022/06/02 13:23:00;;;;;;;2.30;2.10;;;21.80;68.00;;;;;;5034738;28;20165;-74
2022/06/02 13:25:37;;;;;;;2.42;2.03;;;21.80;67.70;;;;;;5034454;28;20208;-75
2022/06/02 13:28:05;;;;;;;5.63;1.90;;;21.70;66.40;;;;;;5034483;28;20169;-75
2022/06/02 13:30:51;;;;;;;2.00;1.90;;;21.60;66.70;;;;;;5034159;28;20180;-77
2022/06/02 13:33:41;;;;;;;2.38;2.17;;;22.00;65.90;;;;;;5034401;28;20165;-72
2022/06/02 13:36:18;;;;;;;2.13;2.00;;;22.00;65.10;;;;;;5034288;28;20227;-76
2022/06/02 13:38:44;;;;;;;4.07;2.35;;;22.10;64.50;;;;;;5034776;28;20207;-75
2022/06/02 13:41:29;;;;;;;2.30;2.10;;;22.30;64.40;;;;;;5035076;28;20165;-76
2022/06/02 13:44:16;;;;;;;2.88;2.60;;;22.30;65.20;;;;;;5035809;28;20167;-76
2022/06/02 13:47:15;;;;;;;2.40;2.20;;;22.50;64.30;;;;;;5034170;28;20615;-77
2022/06/02 13:50:19;;;;;;;2.30;2.10;;;22.40;61.00;;;;;;5034372;28;20175;-77
2022/06/02 13:53:14;;;;;;;2.00;1.90;;;21.90;58.90;;;;;;5035113;28;20152;-77
2022/06/02 13:59:10;;;;;;;2.55;2.30;;;22.10;63.00;;;;;;5034523;28;20172;-77
2022/06/02 14:02:00;;;;;;;2.38;2.17;;;21.90;60.80;;;;;;5033187;28;20232;-75
2022/06/02 14:04:50;;;;;;;2.67;2.47;;;22.00;60.20;;;;;;5034560;28;20574;-78
2022/06/02 14:07:43;;;;;;;2.30;2.10;;;21.70;61.80;;;;;;5033985;28;20200;-70
2022/06/02 14:10:31;;;;;;;3.67;2.30;;;21.80;62.50;;;;;;5033864;28;20193;-69
2022/06/02 14:13:13;;;;;;;5.97;4.75;;;21.90;61.00;;;;;;5034049;28;20187;-70
2022/06/02 14:16:01;;;;;;;3.33;2.17;;;22.20;60.70;;;;;;5033586;28;20165;-69
2022/06/02 14:18:56;;;;;;;2.25;2.00;;;22.30;60.10;;;;;;5033505;28;20523;-69
2022/06/02 14:21:52;;;;;;;1.95;1.85;;;22.20;59.40;;;;;;5033584;28;20248;-69
2022/06/02 14:24:35;;;;;;;1.90;1.80;;;22.30;60.00;;;;;;5033792;28;20295;-71
2022/06/02 14:27:41;;;;;;;1.75;1.60;;;22.30;57.60;;;;;;5033319;28;20639;-70
2022/06/02 14:30:36;;;;;;;2.13;1.60;;;21.80;58.20;;;;;;5032264;28;20227;-69
2022/06/02 14:33:08;;;;;;;2.78;2.15;;;22.10;56.40;;;;;;5033419;28;20165;-70
2022/06/02 14:36:22;;;;;;;1.80;1.70;;;22.60;58.20;;;;;;5033685;28;20165;-71